sensor_id;sensor_type;location;lat;lon;timestamp;temperature;humidity
56240;DHT22;42154;51.992;5.896;2022-11-09T00:00:08;14.20;99.90
56240;DHT22;42154;51.992;5.896;2022-11-09T00:02:34;14.20;99.90
56240;DHT22;42154;51.992;5.896;2022-11-09T00:05:00;14.10;99.90
56240;DHT22;42154;51.992;5.896;2022-11-09T00:07:29;14.20;99.90
56240;DHT22;42154;51.992;5.896;2022-11-09T00:09:55;14.20;99.90
56240;DHT22;42154;51.992;5.896;2022-11-09T00:12:21;14.20;99.90
56240;DHT22;42154;51.992;5.896;2022-11-09T00:14:47;14.20;99.90
56240;DHT22;42154;51.992;5.896;2022-11-09T00:17:12;14.20;99.90
56240;DHT22;42154;51.992;5.896;2022-11-09T00:19:38;14.20;99.90
56240;DHT22;42154;51.992;5.896;2022-11-09T00:22:04;14.20;99.90
56240;DHT22;42154;51.992;5.896;2022-11-09T00:24:29;14.20;99.90
56240;DHT22;42154;51.992;5.896;2022-11-09T00:26:55;14.20;99.90
56240;DHT22;42154;51.992;5.896;2022-11-09T00:29:21;14.30;99.90
56240;DHT22;42154;51.992;5.896;2022-11-09T00:31:47;14.20;99.90
56240;DHT22;42154;51.992;5.896;2022-11-09T00:34:14;14.20;99.90
56240;DHT22;42154;51.992;5.896;2022-11-09T00:36:41;14.20;99.90
56240;DHT22;42154;51.992;5.896;2022-11-09T00:39:07;14.20;99.90
56240;DHT22;42154;51.992;5.896;2022-11-09T00:41:33;14.30;99.90
56240;DHT22;42154;51.992;5.896;2022-11-09T00:44:00;14.30;99.90
56240;DHT22;42154;51.992;5.896;2022-11-09T00:46:26;14.30;99.90
56240;DHT22;42154;51.992;5.896;2022-11-09T00:48:53;14.30;99.90
56240;DHT22;42154;51.992;5.896;2022-11-09T00:51:20;14.30;99.90
56240;DHT22;42154;51.992;5.896;2022-11-09T00:53:46;14.30;99.90
56240;DHT22;42154;51.992;5.896;2022-11-09T00:56:20;14.20;99.90
56240;DHT22;42154;51.992;5.896;2022-11-09T00:58:46;14.20;99.90
56240;DHT22;42154;51.992;5.896;2022-11-09T01:01:14;14.20;99.90
56240;DHT22;42154;51.992;5.896;2022-11-09T01:03:42;14.20;99.90
56240;DHT22;42154;51.992;5.896;2022-11-09T01:06:08;14.20;99.90
56240;DHT22;42154;51.992;5.896;2022-11-09T01:08:38;14.20;99.90
56240;DHT22;42154;51.992;5.896;2022-11-09T01:11:07;14.20;99.90
56240;DHT22;42154;51.992;5.896;2022-11-09T01:13:34;14.30;99.90
56240;DHT22;42154;51.992;5.896;2022-11-09T01:16:04;14.20;99.90
56240;DHT22;42154;51.992;5.896;2022-11-09T01:18:30;14.20;99.90
56240;DHT22;42154;51.992;5.896;2022-11-09T01:20:56;14.30;99.90
56240;DHT22;42154;51.992;5.896;2022-11-09T01:23:22;14.30;99.90
56240;DHT22;42154;51.992;5.896;2022-11-09T01:25:48;14.20;99.90
56240;DHT22;42154;51.992;5.896;2022-11-09T01:28:14;14.30;99.90
56240;DHT22;42154;51.992;5.896;2022-11-09T01:30:41;14.30;99.90
56240;DHT22;42154;51.992;5.896;2022-11-09T01:33:09;14.30;99.90
56240;DHT22;42154;51.992;5.896;2022-11-09T01:35:37;14.30;99.90
56240;DHT22;42154;51.992;5.896;2022-11-09T01:38:04;14.20;99.90
56240;DHT22;42154;51.992;5.896;2022-11-09T01:40:33;14.20;99.90
56240;DHT22;42154;51.992;5.896;2022-11-09T01:43:20;14.20;99.90
56240;DHT22;42154;51.992;5.896;2022-11-09T01:48:48;14.20;99.90
56240;DHT22;42154;51.992;5.896;2022-11-09T01:51:29;14.10;99.90
56240;DHT22;42154;51.992;5.896;2022-11-09T01:54:03;14.10;99.90
56240;DHT22;42154;51.992;5.896;2022-11-09T01:56:31;14.10;99.90
56240;DHT22;42154;51.992;5.896;2022-11-09T01:59:00;14.10;99.90
56240;DHT22;42154;51.992;5.896;2022-11-09T02:01:29;14.10;99.90
56240;DHT22;42154;51.992;5.896;2022-11-09T02:04:19;14.20;99.90
56240;DHT22;42154;51.992;5.896;2022-11-09T02:06:45;14.20;99.90
56240;DHT22;42154;51.992;5.896;2022-11-09T02:09:22;14.10;99.90
56240;DHT22;42154;51.992;5.896;2022-11-09T02:11:50;14.10;99.90
56240;DHT22;42154;51.992;5.896;2022-11-09T02:14:16;14.00;99.90
56240;DHT22;42154;51.992;5.896;2022-11-09T02:16:44;14.00;99.90
56240;DHT22;42154;51.992;5.896;2022-11-09T02:19:12;13.90;99.90
56240;DHT22;42154;51.992;5.896;2022-11-09T02:21:37;13.90;99.90
56240;DHT22;42154;51.992;5.896;2022-11-09T02:24:04;13.90;99.90
56240;DHT22;42154;51.992;5.896;2022-11-09T02:27:02;13.90;99.90
56240;DHT22;42154;51.992;5.896;2022-11-09T02:29:39;14.00;99.90
56240;DHT22;42154;51.992;5.896;2022-11-09T02:32:10;13.90;99.90
56240;DHT22;42154;51.992;5.896;2022-11-09T02:34:36;14.00;99.90
56240;DHT22;42154;51.992;5.896;2022-11-09T02:37:02;13.90;99.90
56240;DHT22;42154;51.992;5.896;2022-11-09T02:39:28;14.00;99.90
56240;DHT22;42154;51.992;5.896;2022-11-09T02:42:14;14.00;99.90
56240;DHT22;42154;51.992;5.896;2022-11-09T02:44:47;14.10;99.90
56240;DHT22;42154;51.992;5.896;2022-11-09T02:47:14;14.00;99.90
56240;DHT22;42154;51.992;5.896;2022-11-09T02:49:41;14.00;99.90
56240;DHT22;42154;51.992;5.896;2022-11-09T02:52:07;14.00;99.90
56240;DHT22;42154;51.992;5.896;2022-11-09T02:54:33;14.00;99.90
56240;DHT22;42154;51.992;5.896;2022-11-09T02:56:59;14.00;99.90
56240;DHT22;42154;51.992;5.896;2022-11-09T02:59:25;14.00;99.90
56240;DHT22;42154;51.992;5.896;2022-11-09T03:01:51;14.00;99.90
56240;DHT22;42154;51.992;5.896;2022-11-09T03:04:17;14.00;99.90
56240;DHT22;42154;51.992;5.896;2022-11-09T03:06:44;14.00;99.90
56240;DHT22;42154;51.992;5.896;2022-11-09T03:09:14;14.00;99.90
56240;DHT22;42154;51.992;5.896;2022-11-09T03:11:41;13.90;99.90
56240;DHT22;42154;51.992;5.896;2022-11-09T03:14:09;13.90;99.90
56240;DHT22;42154;51.992;5.896;2022-11-09T03:16:37;13.90;99.90
56240;DHT22;42154;51.992;5.896;2022-11-09T03:19:05;13.90;99.90
56240;DHT22;42154;51.992;5.896;2022-11-09T03:21:32;13.90;99.90
56240;DHT22;42154;51.992;5.896;2022-11-09T03:23:58;13.90;99.90
56240;DHT22;42154;51.992;5.896;2022-11-09T03:26:24;13.90;99.90
56240;DHT22;42154;51.992;5.896;2022-11-09T03:28:51;13.90;99.90
56240;DHT22;42154;51.992;5.896;2022-11-09T03:31:17;13.90;99.90
56240;DHT22;42154;51.992;5.896;2022-11-09T03:33:45;13.90;99.90
56240;DHT22;42154;51.992;5.896;2022-11-09T03:36:11;13.90;99.90
56240;DHT22;42154;51.992;5.896;2022-11-09T03:38:37;13.90;99.90
56240;DHT22;42154;51.992;5.896;2022-11-09T03:41:03;13.90;99.90
56240;DHT22;42154;51.992;5.896;2022-11-09T03:43:30;13.80;99.90
56240;DHT22;42154;51.992;5.896;2022-11-09T03:45:56;13.80;99.90
56240;DHT22;42154;51.992;5.896;2022-11-09T03:48:22;13.80;99.90
56240;DHT22;42154;51.992;5.896;2022-11-09T03:50:48;13.80;99.90
56240;DHT22;42154;51.992;5.896;2022-11-09T03:53:13;13.80;99.90
56240;DHT22;42154;51.992;5.896;2022-11-09T03:55:39;13.70;99.90
56240;DHT22;42154;51.992;5.896;2022-11-09T03:58:06;13.70;99.90
56240;DHT22;42154;51.992;5.896;2022-11-09T04:00:32;13.70;99.90
56240;DHT22;42154;51.992;5.896;2022-11-09T04:02:58;13.70;99.90
56240;DHT22;42154;51.992;5.896;2022-11-09T04:05:24;13.60;99.90
56240;DHT22;42154;51.992;5.896;2022-11-09T04:07:55;13.60;99.90
56240;DHT22;42154;51.992;5.896;2022-11-09T04:10:23;13.60;99.90
56240;DHT22;42154;51.992;5.896;2022-11-09T04:12:49;13.50;99.90
56240;DHT22;42154;51.992;5.896;2022-11-09T04:15:16;13.40;99.90
56240;DHT22;42154;51.992;5.896;2022-11-09T04:17:42;13.40;99.90
56240;DHT22;42154;51.992;5.896;2022-11-09T04:20:10;13.40;99.90
56240;DHT22;42154;51.992;5.896;2022-11-09T04:22:36;13.30;99.90
56240;DHT22;42154;51.992;5.896;2022-11-09T04:25:03;13.30;99.90
56240;DHT22;42154;51.992;5.896;2022-11-09T04:27:29;13.30;99.90
56240;DHT22;42154;51.992;5.896;2022-11-09T04:29:55;13.20;99.90
56240;DHT22;42154;51.992;5.896;2022-11-09T04:32:21;13.20;99.90
56240;DHT22;42154;51.992;5.896;2022-11-09T04:34:46;13.20;99.90
56240;DHT22;42154;51.992;5.896;2022-11-09T04:37:12;13.20;99.90
56240;DHT22;42154;51.992;5.896;2022-11-09T04:39:38;13.20;99.90
56240;DHT22;42154;51.992;5.896;2022-11-09T04:42:04;13.20;99.90
56240;DHT22;42154;51.992;5.896;2022-11-09T04:44:29;13.30;99.90
56240;DHT22;42154;51.992;5.896;2022-11-09T04:46:55;13.30;99.90
56240;DHT22;42154;51.992;5.896;2022-11-09T04:49:21;13.20;99.90
56240;DHT22;42154;51.992;5.896;2022-11-09T04:51:47;13.20;99.90
56240;DHT22;42154;51.992;5.896;2022-11-09T04:54:13;13.30;99.90
56240;DHT22;42154;51.992;5.896;2022-11-09T04:56:39;13.30;99.90
56240;DHT22;42154;51.992;5.896;2022-11-09T04:59:05;13.30;99.90
56240;DHT22;42154;51.992;5.896;2022-11-09T05:01:30;13.30;99.90
56240;DHT22;42154;51.992;5.896;2022-11-09T05:03:56;13.30;99.90
56240;DHT22;42154;51.992;5.896;2022-11-09T05:06:22;13.20;99.90
56240;DHT22;42154;51.992;5.896;2022-11-09T05:08:58;13.30;99.90
56240;DHT22;42154;51.992;5.896;2022-11-09T05:11:24;13.30;99.90
56240;DHT22;42154;51.992;5.896;2022-11-09T05:13:49;13.20;99.90
56240;DHT22;42154;51.992;5.896;2022-11-09T05:16:18;13.20;99.90
56240;DHT22;42154;51.992;5.896;2022-11-09T05:18:44;13.20;99.90
56240;DHT22;42154;51.992;5.896;2022-11-09T05:21:10;13.20;99.90
56240;DHT22;42154;51.992;5.896;2022-11-09T05:23:36;13.20;99.90
56240;DHT22;42154;51.992;5.896;2022-11-09T05:26:20;13.10;99.90
56240;DHT22;42154;51.992;5.896;2022-11-09T05:28:46;13.20;99.90
56240;DHT22;42154;51.992;5.896;2022-11-09T05:31:12;13.10;99.90
56240;DHT22;42154;51.992;5.896;2022-11-09T05:33:38;13.10;99.90
56240;DHT22;42154;51.992;5.896;2022-11-09T05:36:04;13.10;99.90
56240;DHT22;42154;51.992;5.896;2022-11-09T05:38:29;13.10;99.90
56240;DHT22;42154;51.992;5.896;2022-11-09T05:40:55;13.10;99.90
56240;DHT22;42154;51.992;5.896;2022-11-09T05:43:21;13.10;99.90
56240;DHT22;42154;51.992;5.896;2022-11-09T05:45:47;13.00;99.90
56240;DHT22;42154;51.992;5.896;2022-11-09T05:48:14;13.00;99.90
56240;DHT22;42154;51.992;5.896;2022-11-09T05:50:40;13.00;99.90
56240;DHT22;42154;51.992;5.896;2022-11-09T05:53:18;12.90;99.90
56240;DHT22;42154;51.992;5.896;2022-11-09T05:55:44;12.80;99.90
56240;DHT22;42154;51.992;5.896;2022-11-09T05:58:10;12.80;99.90
56240;DHT22;42154;51.992;5.896;2022-11-09T06:00:35;12.70;99.90
56240;DHT22;42154;51.992;5.896;2022-11-09T06:03:03;12.70;99.90
56240;DHT22;42154;51.992;5.896;2022-11-09T06:05:31;12.70;99.90
56240;DHT22;42154;51.992;5.896;2022-11-09T06:08:04;12.70;99.90
56240;DHT22;42154;51.992;5.896;2022-11-09T06:10:31;12.70;99.90
56240;DHT22;42154;51.992;5.896;2022-11-09T06:12:57;12.60;99.90
56240;DHT22;42154;51.992;5.896;2022-11-09T06:15:23;12.60;99.90
56240;DHT22;42154;51.992;5.896;2022-11-09T06:17:53;12.60;99.90
56240;DHT22;42154;51.992;5.896;2022-11-09T06:20:19;12.60;99.90
56240;DHT22;42154;51.992;5.896;2022-11-09T06:22:55;12.60;99.90
56240;DHT22;42154;51.992;5.896;2022-11-09T06:25:22;12.60;99.90
56240;DHT22;42154;51.992;5.896;2022-11-09T06:27:48;12.50;99.90
56240;DHT22;42154;51.992;5.896;2022-11-09T06:30:14;12.50;99.90
56240;DHT22;42154;51.992;5.896;2022-11-09T06:32:40;12.40;99.90
56240;DHT22;42154;51.992;5.896;2022-11-09T06:35:06;12.40;99.90
56240;DHT22;42154;51.992;5.896;2022-11-09T06:37:32;12.40;99.90
56240;DHT22;42154;51.992;5.896;2022-11-09T06:39:58;12.30;99.90
56240;DHT22;42154;51.992;5.896;2022-11-09T06:42:23;12.30;99.90
56240;DHT22;42154;51.992;5.896;2022-11-09T06:44:49;12.30;99.90
56240;DHT22;42154;51.992;5.896;2022-11-09T06:47:15;12.30;99.90
56240;DHT22;42154;51.992;5.896;2022-11-09T06:49:40;12.30;99.90
56240;DHT22;42154;51.992;5.896;2022-11-09T06:52:06;12.30;99.90
56240;DHT22;42154;51.992;5.896;2022-11-09T06:54:32;12.30;99.90
56240;DHT22;42154;51.992;5.896;2022-11-09T06:56:59;12.20;99.90
56240;DHT22;42154;51.992;5.896;2022-11-09T06:59:25;12.30;99.90
56240;DHT22;42154;51.992;5.896;2022-11-09T07:01:53;12.30;99.90
56240;DHT22;42154;51.992;5.896;2022-11-09T07:04:19;12.30;99.90
56240;DHT22;42154;51.992;5.896;2022-11-09T07:06:44;12.30;99.90
56240;DHT22;42154;51.992;5.896;2022-11-09T07:09:11;12.20;99.90
56240;DHT22;42154;51.992;5.896;2022-11-09T07:11:37;12.30;99.90
56240;DHT22;42154;51.992;5.896;2022-11-09T07:14:03;12.30;99.90
56240;DHT22;42154;51.992;5.896;2022-11-09T07:16:29;12.30;99.90
56240;DHT22;42154;51.992;5.896;2022-11-09T07:18:55;12.30;99.90
56240;DHT22;42154;51.992;5.896;2022-11-09T07:21:21;12.30;99.90
56240;DHT22;42154;51.992;5.896;2022-11-09T07:23:47;12.30;99.90
56240;DHT22;42154;51.992;5.896;2022-11-09T07:26:14;12.30;99.90
56240;DHT22;42154;51.992;5.896;2022-11-09T07:28:40;12.30;99.90
56240;DHT22;42154;51.992;5.896;2022-11-09T07:31:07;12.30;99.90
56240;DHT22;42154;51.992;5.896;2022-11-09T07:33:33;12.40;99.90
56240;DHT22;42154;51.992;5.896;2022-11-09T07:36:00;12.40;99.90
56240;DHT22;42154;51.992;5.896;2022-11-09T07:38:27;12.40;99.90
56240;DHT22;42154;51.992;5.896;2022-11-09T07:40:53;12.40;99.90
56240;DHT22;42154;51.992;5.896;2022-11-09T07:43:19;12.40;99.90
56240;DHT22;42154;51.992;5.896;2022-11-09T07:45:49;12.40;99.90
56240;DHT22;42154;51.992;5.896;2022-11-09T07:48:15;12.40;99.90
56240;DHT22;42154;51.992;5.896;2022-11-09T07:50:41;12.50;99.90
56240;DHT22;42154;51.992;5.896;2022-11-09T07:53:08;12.40;99.90
56240;DHT22;42154;51.992;5.896;2022-11-09T07:55:35;12.50;99.90
56240;DHT22;42154;51.992;5.896;2022-11-09T07:58:09;12.50;99.90
56240;DHT22;42154;51.992;5.896;2022-11-09T08:00:36;12.50;99.90
56240;DHT22;42154;51.992;5.896;2022-11-09T08:03:03;12.60;99.90
56240;DHT22;42154;51.992;5.896;2022-11-09T08:05:29;12.60;99.90
56240;DHT22;42154;51.992;5.896;2022-11-09T08:07:59;12.60;99.90
56240;DHT22;42154;51.992;5.896;2022-11-09T08:10:26;12.60;99.90
56240;DHT22;42154;51.992;5.896;2022-11-09T08:12:58;12.60;99.90
56240;DHT22;42154;51.992;5.896;2022-11-09T08:15:24;12.70;99.90
56240;DHT22;42154;51.992;5.896;2022-11-09T08:17:51;12.70;99.90
56240;DHT22;42154;51.992;5.896;2022-11-09T08:20:17;12.80;99.90
56240;DHT22;42154;51.992;5.896;2022-11-09T08:22:45;12.80;99.90
56240;DHT22;42154;51.992;5.896;2022-11-09T08:25:12;12.80;99.90
56240;DHT22;42154;51.992;5.896;2022-11-09T08:27:38;12.80;99.90
56240;DHT22;42154;51.992;5.896;2022-11-09T08:30:12;12.80;99.90
56240;DHT22;42154;51.992;5.896;2022-11-09T08:32:40;12.90;99.90
56240;DHT22;42154;51.992;5.896;2022-11-09T08:35:07;12.90;99.90
56240;DHT22;42154;51.992;5.896;2022-11-09T08:37:38;12.90;99.90
56240;DHT22;42154;51.992;5.896;2022-11-09T08:40:05;12.90;99.90
56240;DHT22;42154;51.992;5.896;2022-11-09T08:42:31;12.90;99.90
56240;DHT22;42154;51.992;5.896;2022-11-09T08:44:57;13.00;99.90
56240;DHT22;42154;51.992;5.896;2022-11-09T08:47:23;13.00;99.90
56240;DHT22;42154;51.992;5.896;2022-11-09T08:49:49;13.00;99.90
56240;DHT22;42154;51.992;5.896;2022-11-09T08:52:15;13.10;99.90
56240;DHT22;42154;51.992;5.896;2022-11-09T08:54:41;13.10;99.90
56240;DHT22;42154;51.992;5.896;2022-11-09T08:57:07;13.10;99.90
56240;DHT22;42154;51.992;5.896;2022-11-09T08:59:33;13.20;99.90
56240;DHT22;42154;51.992;5.896;2022-11-09T09:01:59;13.20;99.90
56240;DHT22;42154;51.992;5.896;2022-11-09T09:04:24;13.30;99.90
56240;DHT22;42154;51.992;5.896;2022-11-09T09:06:51;13.40;99.90
56240;DHT22;42154;51.992;5.896;2022-11-09T09:09:16;13.50;99.90
56240;DHT22;42154;51.992;5.896;2022-11-09T09:11:42;13.60;99.90
56240;DHT22;42154;51.992;5.896;2022-11-09T09:14:08;13.80;99.90
56240;DHT22;42154;51.992;5.896;2022-11-09T09:16:34;13.80;99.90
56240;DHT22;42154;51.992;5.896;2022-11-09T09:19:00;13.90;99.90
56240;DHT22;42154;51.992;5.896;2022-11-09T09:21:26;13.90;99.90
56240;DHT22;42154;51.992;5.896;2022-11-09T09:23:51;14.00;99.90
56240;DHT22;42154;51.992;5.896;2022-11-09T09:26:17;14.10;99.90
56240;DHT22;42154;51.992;5.896;2022-11-09T09:28:43;14.00;99.90
56240;DHT22;42154;51.992;5.896;2022-11-09T09:31:09;14.10;99.90
56240;DHT22;42154;51.992;5.896;2022-11-09T09:33:35;14.10;99.90
56240;DHT22;42154;51.992;5.896;2022-11-09T09:36:01;14.20;99.90
56240;DHT22;42154;51.992;5.896;2022-11-09T09:38:28;14.20;99.90
56240;DHT22;42154;51.992;5.896;2022-11-09T09:40:56;14.20;99.90
56240;DHT22;42154;51.992;5.896;2022-11-09T09:43:49;14.20;99.90
56240;DHT22;42154;51.992;5.896;2022-11-09T09:46:25;14.20;99.90
56240;DHT22;42154;51.992;5.896;2022-11-09T09:49:08;14.20;99.90
56240;DHT22;42154;51.992;5.896;2022-11-09T09:51:41;14.30;99.90
56240;DHT22;42154;51.992;5.896;2022-11-09T09:54:24;14.30;99.90
56240;DHT22;42154;51.992;5.896;2022-11-09T09:56:54;14.30;99.90
56240;DHT22;42154;51.992;5.896;2022-11-09T10:01:59;14.30;99.90
56240;DHT22;42154;51.992;5.896;2022-11-09T10:04:36;14.40;99.90
56240;DHT22;42154;51.992;5.896;2022-11-09T10:07:57;14.40;99.90
56240;DHT22;42154;51.992;5.896;2022-11-09T10:10:28;14.40;99.90
56240;DHT22;42154;51.992;5.896;2022-11-09T10:13:37;14.40;99.90
56240;DHT22;42154;51.992;5.896;2022-11-09T10:26:57;14.70;99.90
56240;DHT22;42154;51.992;5.896;2022-11-09T10:31:53;14.90;99.90
56240;DHT22;42154;51.992;5.896;2022-11-09T10:34:30;14.90;99.90
56240;DHT22;42154;51.992;5.896;2022-11-09T10:37:08;15.00;99.90
56240;DHT22;42154;51.992;5.896;2022-11-09T10:39:49;15.10;99.90
56240;DHT22;42154;51.992;5.896;2022-11-09T10:42:34;15.10;99.90
56240;DHT22;42154;51.992;5.896;2022-11-09T10:45:30;15.10;99.90
56240;DHT22;42154;51.992;5.896;2022-11-09T10:48:30;15.20;99.90
56240;DHT22;42154;51.992;5.896;2022-11-09T10:51:38;15.20;99.90
56240;DHT22;42154;51.992;5.896;2022-11-09T10:54:28;15.20;99.90
56240;DHT22;42154;51.992;5.896;2022-11-09T10:57:18;15.10;99.90
56240;DHT22;42154;51.992;5.896;2022-11-09T11:00:04;15.10;99.90
56240;DHT22;42154;51.992;5.896;2022-11-09T11:02:50;15.10;99.90
56240;DHT22;42154;51.992;5.896;2022-11-09T11:05:37;15.10;99.90
56240;DHT22;42154;51.992;5.896;2022-11-09T11:11:22;15.10;99.90
56240;DHT22;42154;51.992;5.896;2022-11-09T11:14:15;15.10;99.90
56240;DHT22;42154;51.992;5.896;2022-11-09T11:17:00;15.10;99.90
56240;DHT22;42154;51.992;5.896;2022-11-09T11:19:44;15.10;99.90
56240;DHT22;42154;51.992;5.896;2022-11-09T11:22:29;15.10;99.90
56240;DHT22;42154;51.992;5.896;2022-11-09T11:25:21;15.10;99.90
56240;DHT22;42154;51.992;5.896;2022-11-09T11:28:37;15.10;99.90
56240;DHT22;42154;51.992;5.896;2022-11-09T11:31:22;15.10;99.90
56240;DHT22;42154;51.992;5.896;2022-11-09T11:34:13;15.00;99.90
56240;DHT22;42154;51.992;5.896;2022-11-09T11:52:06;15.10;99.90
56240;DHT22;42154;51.992;5.896;2022-11-09T11:58:24;15.40;99.90
56240;DHT22;42154;51.992;5.896;2022-11-09T12:04:34;15.30;99.90
56240;DHT22;42154;51.992;5.896;2022-11-09T12:13:43;15.30;99.70
56240;DHT22;42154;51.992;5.896;2022-11-09T12:25:35;15.40;99.70
56240;DHT22;42154;51.992;5.896;2022-11-09T12:31:33;15.40;99.70
56240;DHT22;42154;51.992;5.896;2022-11-09T12:34:29;15.40;99.70
56240;DHT22;42154;51.992;5.896;2022-11-09T12:37:22;15.40;99.70
56240;DHT22;42154;51.992;5.896;2022-11-09T12:40:30;15.40;99.80
56240;DHT22;42154;51.992;5.896;2022-11-09T12:43:19;15.40;99.80
56240;DHT22;42154;51.992;5.896;2022-11-09T12:46:05;15.40;99.70
56240;DHT22;42154;51.992;5.896;2022-11-09T12:48:50;15.40;99.70
56240;DHT22;42154;51.992;5.896;2022-11-09T12:51:36;15.40;99.70
56240;DHT22;42154;51.992;5.896;2022-11-09T12:54:20;15.40;99.60
56240;DHT22;42154;51.992;5.896;2022-11-09T12:57:08;15.40;99.60
56240;DHT22;42154;51.992;5.896;2022-11-09T12:59:58;15.40;99.60
56240;DHT22;42154;51.992;5.896;2022-11-09T13:02:53;15.30;99.60
56240;DHT22;42154;51.992;5.896;2022-11-09T13:05:38;15.30;99.60
56240;DHT22;42154;51.992;5.896;2022-11-09T13:08:28;15.30;99.60
56240;DHT22;42154;51.992;5.896;2022-11-09T13:11:21;15.30;99.60
56240;DHT22;42154;51.992;5.896;2022-11-09T13:20:37;15.30;99.50
56240;DHT22;42154;51.992;5.896;2022-11-09T13:23:36;15.40;99.40
56240;DHT22;42154;51.992;5.896;2022-11-09T13:32:25;15.40;98.80
56240;DHT22;42154;51.992;5.896;2022-11-09T13:38:28;15.30;98.70
56240;DHT22;42154;51.992;5.896;2022-11-09T13:47:01;15.30;98.40
56240;DHT22;42154;51.992;5.896;2022-11-09T13:49:47;15.20;98.40
56240;DHT22;42154;51.992;5.896;2022-11-09T13:52:51;15.10;98.50
56240;DHT22;42154;51.992;5.896;2022-11-09T13:55:40;15.30;98.50
56240;DHT22;42154;51.992;5.896;2022-11-09T13:58:33;15.30;98.40
56240;DHT22;42154;51.992;5.896;2022-11-09T14:01:29;15.40;98.30
56240;DHT22;42154;51.992;5.896;2022-11-09T14:07:28;15.30;98.10
56240;DHT22;42154;51.992;5.896;2022-11-09T14:10:37;15.30;98.00
56240;DHT22;42154;51.992;5.896;2022-11-09T14:19:33;15.30;98.20
56240;DHT22;42154;51.992;5.896;2022-11-09T14:22:20;15.20;98.10
56240;DHT22;42154;51.992;5.896;2022-11-09T14:25:17;15.10;98.20
56240;DHT22;42154;51.992;5.896;2022-11-09T14:28:01;15.10;98.30
56240;DHT22;42154;51.992;5.896;2022-11-09T14:30:46;15.10;98.60
56240;DHT22;42154;51.992;5.896;2022-11-09T14:33:32;15.20;98.50
56240;DHT22;42154;51.992;5.896;2022-11-09T14:36:18;15.20;98.40
56240;DHT22;42154;51.992;5.896;2022-11-09T14:39:05;15.20;98.40
56240;DHT22;42154;51.992;5.896;2022-11-09T14:41:57;15.20;98.30
56240;DHT22;42154;51.992;5.896;2022-11-09T14:44:43;15.10;98.40
56240;DHT22;42154;51.992;5.896;2022-11-09T14:47:30;15.00;98.50
56240;DHT22;42154;51.992;5.896;2022-11-09T14:50:23;15.00;98.60
56240;DHT22;42154;51.992;5.896;2022-11-09T14:53:16;15.10;98.50
56240;DHT22;42154;51.992;5.896;2022-11-09T14:56:06;15.10;98.60
56240;DHT22;42154;51.992;5.896;2022-11-09T14:58:51;15.00;98.70
56240;DHT22;42154;51.992;5.896;2022-11-09T15:01:36;15.00;98.80
56240;DHT22;42154;51.992;5.896;2022-11-09T15:04:20;14.90;98.70
56240;DHT22;42154;51.992;5.896;2022-11-09T15:07:05;14.90;98.90
56240;DHT22;42154;51.992;5.896;2022-11-09T15:09:58;14.90;99.00
56240;DHT22;42154;51.992;5.896;2022-11-09T15:12:52;14.80;99.00
56240;DHT22;42154;51.992;5.896;2022-11-09T15:15:37;14.80;99.10
56240;DHT22;42154;51.992;5.896;2022-11-09T15:18:25;14.80;99.30
56240;DHT22;42154;51.992;5.896;2022-11-09T15:21:31;14.80;99.30
56240;DHT22;42154;51.992;5.896;2022-11-09T15:24:17;14.70;99.30
56240;DHT22;42154;51.992;5.896;2022-11-09T15:27:02;14.70;99.40
56240;DHT22;42154;51.992;5.896;2022-11-09T15:29:46;14.70;99.50
56240;DHT22;42154;51.992;5.896;2022-11-09T15:32:37;14.70;99.50
56240;DHT22;42154;51.992;5.896;2022-11-09T15:35:21;14.70;99.50
56240;DHT22;42154;51.992;5.896;2022-11-09T15:38:27;14.60;99.50
56240;DHT22;42154;51.992;5.896;2022-11-09T15:41:17;14.60;99.60
56240;DHT22;42154;51.992;5.896;2022-11-09T15:44:01;14.50;99.70
56240;DHT22;42154;51.992;5.896;2022-11-09T15:46:49;14.60;99.90
56240;DHT22;42154;51.992;5.896;2022-11-09T15:49:34;14.60;99.70
56240;DHT22;42154;51.992;5.896;2022-11-09T15:52:18;14.60;99.70
56240;DHT22;42154;51.992;5.896;2022-11-09T15:55:03;14.60;99.70
56240;DHT22;42154;51.992;5.896;2022-11-09T15:57:50;14.50;99.80
56240;DHT22;42154;51.992;5.896;2022-11-09T16:00:38;14.50;99.70
56240;DHT22;42154;51.992;5.896;2022-11-09T16:03:22;14.40;99.80
56240;DHT22;42154;51.992;5.896;2022-11-09T16:06:09;14.40;99.80
56240;DHT22;42154;51.992;5.896;2022-11-09T16:08:54;14.40;99.80
56240;DHT22;42154;51.992;5.896;2022-11-09T16:11:38;14.40;99.90
56240;DHT22;42154;51.992;5.896;2022-11-09T16:14:23;14.30;99.90
56240;DHT22;42154;51.992;5.896;2022-11-09T16:17:07;14.30;99.90
56240;DHT22;42154;51.992;5.896;2022-11-09T16:19:52;14.30;99.90
56240;DHT22;42154;51.992;5.896;2022-11-09T16:22:36;14.30;99.90
56240;DHT22;42154;51.992;5.896;2022-11-09T16:25:20;14.30;99.90
56240;DHT22;42154;51.992;5.896;2022-11-09T16:28:05;14.30;99.90
56240;DHT22;42154;51.992;5.896;2022-11-09T16:30:49;14.20;99.90
56240;DHT22;42154;51.992;5.896;2022-11-09T16:33:33;14.20;99.90
56240;DHT22;42154;51.992;5.896;2022-11-09T16:36:22;14.20;99.90
56240;DHT22;42154;51.992;5.896;2022-11-09T16:39:08;14.20;99.90
56240;DHT22;42154;51.992;5.896;2022-11-09T16:41:55;14.20;99.90
56240;DHT22;42154;51.992;5.896;2022-11-09T16:44:42;14.20;99.90
56240;DHT22;42154;51.992;5.896;2022-11-09T16:47:27;14.20;99.90
56240;DHT22;42154;51.992;5.896;2022-11-09T16:50:11;14.10;99.90
56240;DHT22;42154;51.992;5.896;2022-11-09T16:52:56;14.10;99.90
56240;DHT22;42154;51.992;5.896;2022-11-09T16:55:40;14.10;99.90
56240;DHT22;42154;51.992;5.896;2022-11-09T16:58:24;14.00;99.90
56240;DHT22;42154;51.992;5.896;2022-11-09T17:01:09;14.00;99.90
56240;DHT22;42154;51.992;5.896;2022-11-09T17:03:55;13.90;99.90
56240;DHT22;42154;51.992;5.896;2022-11-09T17:06:40;13.80;99.90
56240;DHT22;42154;51.992;5.896;2022-11-09T17:09:23;13.80;99.90
56240;DHT22;42154;51.992;5.896;2022-11-09T17:12:07;13.70;99.90
56240;DHT22;42154;51.992;5.896;2022-11-09T17:14:52;13.70;99.90
56240;DHT22;42154;51.992;5.896;2022-11-09T17:17:36;13.60;99.90
56240;DHT22;42154;51.992;5.896;2022-11-09T17:20:20;13.60;99.90
56240;DHT22;42154;51.992;5.896;2022-11-09T17:23:04;13.60;99.90
56240;DHT22;42154;51.992;5.896;2022-11-09T17:26:00;13.60;99.90
56240;DHT22;42154;51.992;5.896;2022-11-09T17:28:45;13.60;99.90
56240;DHT22;42154;51.992;5.896;2022-11-09T17:31:32;13.50;99.90
56240;DHT22;42154;51.992;5.896;2022-11-09T17:34:16;13.50;99.90
56240;DHT22;42154;51.992;5.896;2022-11-09T17:37:01;13.50;99.90
56240;DHT22;42154;51.992;5.896;2022-11-09T17:39:46;13.50;99.90
56240;DHT22;42154;51.992;5.896;2022-11-09T17:42:33;13.40;99.90
56240;DHT22;42154;51.992;5.896;2022-11-09T17:45:17;13.40;99.90
56240;DHT22;42154;51.992;5.896;2022-11-09T17:48:02;13.30;99.90
56240;DHT22;42154;51.992;5.896;2022-11-09T17:50:47;13.20;99.90